• Join FlightAware (Why Join?)
  • Login
  • US Flag 
08:54AM EDT


 

Airport Tracker/Info


-or-


 

Live Flight TrackerFlight Track Log ✈ RPA3392 ✈ 25-Jun-2013 ✈ KMSP - KDCA

Flight Track Log - Related Links

Times and Time Zones

All times are in EDT time to prevent confusion due to time zone crossing. See the RPA3392 flight status page for this flight to view local times or setup timezone preferences in your user account.

Time Position Orientation Groundspeed Altitude Reporting Facility
EDT Latitude Longitude Course Direction KTS MPH feet Rate Location/Type
06:34PM 44.8500 -93.2000 117° Southeast 166 191 2,200  Level Minneapolis TRACON
06:35PM 44.8231 -93.1550 130° Southeast 196 226 3,200 1,560 Climbing Minneapolis Center
06:36PM 44.7616 -92.7829 111° Southeast  Level Estimated
06:36PM 44.7903 -93.0678 118° Southeast 249 287 5,100  Level Minneapolis Center
06:37PM 44.7211 -92.6370 113° Southeast  Level Estimated
06:37PM 44.7617 -92.9669 112° Southeast 274 315 7,400  Level Minneapolis Center
06:38PM 44.6604 -92.5058 123° Southeast  Level FlightAware Approximate
06:38PM 44.7328 -92.8586 111° Southeast 294 338 9,400  Level Minneapolis Center
06:39PM 44.6075 -92.3580 117° Southeast  Level FlightAware Approximate
06:39PM 44.7019 -92.7433 111° Southeast 313 360 11,400  Level Minneapolis Center
06:40PM 44.6683 -92.6214 111° Southeast 334 384 13,700 2,460 Climbing Minneapolis Center
06:41PM 44.6275 -92.4703 111° Southeast 345 397 16,500 2,280 Climbing Minneapolis Center
06:42PM 44.5914 -92.3433 112° Southeast 351 404 18,500 1,800 Climbing Minneapolis Center
06:43PM 44.5544 -92.2067 111° Southeast 367 422 20,300 1,740 Climbing Minneapolis Center
06:44PM 44.4897 -92.0828 126° Southeast 386 444 22,100 1,680 Climbing Minneapolis Center
06:45PM 44.4256 -91.9567 125° Southeast 398 458 23,800 1,680 Climbing Minneapolis Center
06:46PM 44.3478 -91.7986 124° Southeast 408 470 25,600 1,500 Climbing Minneapolis Center
06:47PM 44.2939 -91.6506 117° Southeast 425 489 27,000 1,200 Climbing Minneapolis Center
06:48PM 44.2322 -91.5078 121° Southeast 431 496 28,100 960 Climbing Minneapolis Center
06:49PM 44.1708 -91.4000 128° Southeast 440 506 29,000 1,020 Climbing Minneapolis Center
06:50PM 44.0769 -91.2261 127° Southeast 449 517 30,300 1,020 Climbing Minneapolis Center
06:51PM 44.0094 -91.0736 122° Southeast 461 531 31,200 960 Climbing Minneapolis Center
06:52PM 43.9550 -90.9122 115° Southeast 464 534 32,300 1,080 Climbing Minneapolis Center
06:53PM 43.8994 -90.7531 116° Southeast 461 531 33,500 1,140 Climbing Minneapolis Center
06:54PM 43.8347 -90.5658 116° Southeast 453 521 34,700 720 Climbing Minneapolis Center
06:55PM 43.7756 -90.3944 116° Southeast 456 525 35,000 120 Climbing Minneapolis Center
06:56PM 43.7236 -90.2469 116° Southeast 468 539 35,000  Level Minneapolis Center
06:57PM 43.6592 -90.0678 116° Southeast 476 548 35,000  Level Minneapolis Center
06:59PM 43.6175 -89.8933 108° East 479 551 35,000  Level Minneapolis Center
07:00PM 43.5706 -89.6578 105° East 479 551 35,000  Level Minneapolis Center
07:01PM 43.5408 -89.4775 103° East 482 555 35,000  Level Minneapolis Center
07:02PM 43.5097 -89.2972 103° East 483 556 35,000  Level Minneapolis Center
07:03PM 43.4792 -89.1192 103° East 481 554 35,000  Level Minneapolis Center
07:04PM 43.4469 -88.9403 104° East 483 556 35,000  Level Chicago Center
07:05PM 43.4153 -88.7606 104° East 486 559 35,000  Level Chicago Center
07:06PM 43.3794 -88.5597 104° East 487 560 35,000  Level Chicago Center
07:07PM 43.3467 -88.3803 104° East 486 559 35,000  Level Chicago Center
07:08PM 43.3156 -88.2053 104° East 477 549 35,000  Level Chicago Center
07:09PM 43.2833 -88.0281 104° East 480 552 35,000  Level Chicago Center
07:10PM 43.2511 -87.8525 104° East 476 548 35,000  Level Chicago Center
07:11PM 43.2178 -87.6761 104° East 478 550 35,000  Level Chicago Center
07:12PM 43.1792 -87.4719 104° East 475 547 35,000  Level Chicago Center
07:13PM 43.1483 -87.3061 104° East 474 545 35,000  Level Chicago Center
07:14PM 43.1150 -87.1325 105° East 474 545 35,000  Level Chicago Center
07:15PM 43.0825 -86.9608 104° East 469 540 35,000  Level Chicago Center
07:16PM 43.0489 -86.7906 105° East 466 536 35,000  Level Chicago Center
07:17PM 43.0089 -86.5878 105° East 463 533 35,000  Level Chicago Center
07:18PM 42.9756 -86.4236 105° East 454 522 35,000  Level Chicago Center
07:19PM 42.9431 -86.2636 105° East 444 511 35,000  Level Chicago Center
07:20PM 42.9097 -86.1061 106° East 442 509 35,000  Level Chicago Center
07:21PM 42.8717 -85.9156 105° East 444 511 35,000  Level Chicago Center
07:22PM 42.8397 -85.7556 105° East 445 512 35,000  Level Chicago Center
07:23PM 42.8075 -85.5956 105° East 444 511 35,000  Level Chicago Center
07:24PM 42.7683 -85.4406 109° East 438 504 35,000  Level Chicago Center
07:25PM 42.7169 -85.2972 116° Southeast 426 490 35,000  Level Chicago Center
07:27PM 42.6664 -85.1503 115° Southeast 428 493 35,000  Level Chicago Center
07:28PM 42.6033 -84.9731 116° Southeast 435 501 35,000  Level Chicago Center
07:29PM 42.5489 -84.8219 116° Southeast 445 512 35,000  Level Chicago Center
07:30PM 42.4956 -84.6703 115° Southeast 446 513 35,000  Level Chicago Center
07:31PM 42.4411 -84.5208 116° Southeast 442 509 35,000  Level Chicago Center
07:32PM 42.3906 -84.3794 116° Southeast 438 504 35,000  Level Chicago Center
07:32PM 42.3431 -84.2608 118° Southeast 441 507 35,000  Level Cleveland Center
07:33PM 42.2892 -84.1144 116° Southeast 441 507 35,000  Level Cleveland Center
07:34PM 42.2161 -83.9842 127° Southeast 441 507 35,000  Level Cleveland Center
07:35PM 42.1442 -83.8767 132° Southeast 436 502 35,000  Level Cleveland Center
07:36PM 42.0661 -83.7578 131° Southeast 431 496 35,000  Level Cleveland Center
07:37PM 41.9839 -83.6364 132° Southeast 431 496 35,000  Level Cleveland Center
07:38PM 41.9058 -83.5156 131° Southeast 431 496 35,000  Level Cleveland Center
07:39PM 41.8275 -83.3978 132° Southeast 431 496 35,000  Level Cleveland Center
07:40PM 41.7511 -83.2803 131° Southeast 426 490 35,000  Level Cleveland Center
07:41PM 41.6744 -83.1603 131° Southeast 421 484 35,000  Level Cleveland Center
07:42PM 41.5919 -83.0347 131° Southeast 421 484 35,000  Level Cleveland Center
07:43PM 41.5131 -82.9181 132° Southeast 421 484 35,000  Level Cleveland Center
07:44PM 41.4361 -82.8044 132° Southeast 421 484 35,000  Level Cleveland Center
07:45PM 41.3611 -82.6911 131° Southeast 421 484 35,000  Level Cleveland Center
07:46PM 41.2839 -82.5781 132° Southeast 421 484 35,000  Level Cleveland Center
07:47PM 41.2044 -82.4625 132° Southeast 421 484 35,000  Level Cleveland Center
07:48PM 41.1292 -82.3475 131° Southeast 421 484 35,000  Level Cleveland Center
07:49PM 41.0686 -82.2108 120° Southeast 421 484 35,000  Level Cleveland Center
07:50PM 41.0100 -82.0744 120° Southeast 429 494 35,000  Level Cleveland Center
07:51PM 40.9514 -81.9383 120° Southeast 429 494 35,000  Level Cleveland Center
07:52PM 40.8903 -81.8000 120° Southeast 429 494 35,000  Level Cleveland Center
07:53PM 40.8417 -81.6756 117° Southeast 424 488 35,000  Level Cleveland Center
07:54PM 40.7822 -81.5375 120° Southeast 424 488 35,000  Level Cleveland Center
07:55PM 40.7144 -81.4075 124° Southeast 424 488 35,000  Level Cleveland Center
07:56PM 40.6192 -81.3244 146° Southeast 407 468 35,000  Level Cleveland Center
07:57PM 40.5156 -81.2331 146° Southeast 412 474 35,000  Level Cleveland Center
07:58PM 40.4222 -81.1558 148° Southeast 407 468 35,000  Level Cleveland Center
07:59PM 40.3289 -81.0733 146° Southeast 402 463 35,000  Level Cleveland Center
08:00PM 40.2311 -80.9936 148° Southeast 408 470 35,000  Level Cleveland Center
08:01PM 40.1439 -80.9172 146° Southeast 415 478 35,000  Level Cleveland Center
08:02PM 40.0503 -80.8408 148° Southeast 410 472 35,000  Level Cleveland Center
08:03PM 39.9669 -80.7428 138° Southeast 410 472 35,000  Level Cleveland Center
08:04PM 39.8878 -80.6317 133° Southeast 410 472 35,000  Level Cleveland Center
08:05PM 39.8067 -80.5208 134° Southeast 410 472 35,000 -180 Level Cleveland Center
08:06PM 39.7272 -80.4103 133° Southeast 410 472 34,700 -660 Descending Cleveland Center
08:07PM 39.6458 -80.2972 133° Southeast 421 484 33,700 -900 Descending Cleveland Center
08:08PM 39.5619 -80.1844 134° Southeast 421 484 33,000 -360 Descending Cleveland Center
08:09PM 39.4781 -80.0694 133° Southeast 426 490 33,000  Level Cleveland Center
08:11PM 39.3158 -79.8411 133° Southeast 417 480 33,000 -420 Level Washington Center
08:12PM 39.2856 -79.6892 104° East 427 491 31,800 -1,020 Descending Washington Center
08:13PM 39.2742 -79.5275 95° East 441 507 31,000 -900 Descending Washington Center
08:14PM 39.2608 -79.3661 96° East 455 524 30,000 -1,680 Descending Washington Center
08:15PM 39.2469 -79.2072 96° East 455 524 27,700 -1,740 Descending Washington Center
08:16PM 39.2408 -79.0567 93° East 437 503 26,600 -1,080 Descending Washington Center
08:17PM 39.2889 -78.9089 67° East 425 489 25,600 -1,920 Descending Washington Center
08:18PM 39.2844 -78.7611 92° East 413 475 22,800 -2,880 Descending Washington Center
08:19PM 39.2422 -78.6225 111° Southeast 405 466 19,800 -2,940 Descending Washington Center
08:20PM 39.2036 -78.4897 111° Southeast 405 466 17,000 -2,460 Descending Washington Center
08:21PM 39.1631 -78.3597 112° Southeast 393 452 15,000 -1,020 Descending Washington Center
08:22PM 39.1325 -78.2328 107° East 381 438 15,000  Level Washington Center
08:23PM 39.0958 -78.0950 109° East 371 427 15,000 -600 Level Washington Center
08:24PM 39.0628 -77.9708 109° East 371 427 13,900 -1,500 Descending Washington Center
08:25PM 39.0319 -77.8469 108° East 371 427 12,000 -1,500 Descending Washington Center
08:26PM 39.0008 -77.7283 109° East 358 412 11,000 -720 Descending Washington Center
08:27PM 38.9736 -77.6156 107° East 344 396 10,600 -1,020 Descending Washington Center
08:28PM 38.9500 -77.5333 110° East 321 369 9,300 -1,920 Descending Potomac TRACON
08:29PM 38.9667 -77.4333 78° East 302 348 7,200 -1,860 Descending Potomac TRACON
08:30PM 39.0000 -77.3333 67° East 299 344 5,400 -1,320 Descending Potomac TRACON
08:31PM 39.0167 -77.2500 76° East 273 314 4,700 -840 Descending Potomac TRACON
08:32PM 38.9833 -77.1667 117° Southeast 221 254 3,800 -900 Descending Potomac TRACON